Time;durP1;ratioP1;P1;durP2;ratioP2;P2;SDS_P1;SDS_P2;PMS_P1;PMS_P2;Temp;Humidity;BMP_temperature;BMP_pressure;BME280_temperature;BME280_humidity;BME280_pressure;Samples;Min_cycle;Max_cycle;Signal;HPM_P1;HPM_P2
2022/09/16 00:01:25;;;;;;;3.80;3.17;;;14.90;72.10;;;;;;5087222;28;20020;-60
2022/09/16 00:03:55;;;;;;;8.38;3.08;;;14.90;72.10;;;;;;5117663;28;20031;-60
2022/09/16 00:06:23;;;;;;;2.83;2.53;;;14.90;72.20;;;;;;5105213;28;20047;-59
2022/09/16 00:08:50;;;;;;;4.43;2.92;;;14.90;72.10;;;;;;5085549;28;20046;-60
2022/09/16 00:11:17;;;;;;;6.15;3.20;;;14.90;72.30;;;;;;5093935;28;20055;-60
2022/09/16 00:13:43;;;;;;;6.25;4.13;;;14.80;73.10;;;;;;5083722;28;20088;-59
2022/09/16 00:16:13;;;;;;;6.72;4.15;;;14.80;72.60;;;;;;5090638;28;20048;-60
2022/09/16 00:18:38;;;;;;;11.25;4.60;;;14.80;72.70;;;;;;5108310;28;20036;-60
2022/09/16 00:21:07;;;;;;;5.07;4.53;;;14.80;72.80;;;;;;5068016;28;20036;-59
2022/09/16 00:23:33;;;;;;;6.93;4.03;;;14.80;73.00;;;;;;5086630;28;20047;-60
2022/09/16 00:25:59;;;;;;;4.68;4.18;;;14.80;73.00;;;;;;5084552;28;20032;-59
2022/09/16 00:28:25;;;;;;;5.05;4.30;;;14.80;73.00;;;;;;5092155;28;20086;-61
2022/09/16 00:30:51;;;;;;;9.45;4.55;;;14.80;73.00;;;;;;5087595;28;20036;-60
2022/09/16 00:33:18;;;;;;;6.15;4.10;;;14.80;73.00;;;;;;5081470;28;20042;-58
2022/09/16 00:35:43;;;;;;;4.60;3.72;;;14.80;73.20;;;;;;5089594;28;20032;-59
2022/09/16 00:38:09;;;;;;;7.88;3.83;;;14.80;73.30;;;;;;5081319;28;20024;-60
2022/09/16 00:40:42;;;;;;;7.03;4.05;;;14.80;73.40;;;;;;5087463;28;20040;-59
2022/09/16 00:43:12;;;;;;;6.50;3.72;;;14.80;73.40;;;;;;5080459;28;20029;-59
2022/09/16 00:45:38;;;;;;;7.43;3.55;;;14.80;73.40;;;;;;5066475;28;20021;-61
2022/09/16 00:48:08;;;;;;;21.60;3.72;;;14.80;73.30;;;;;;5080067;28;20066;-59
2022/09/16 00:50:44;;;;;;;10.27;3.63;;;14.80;73.20;;;;;;5089943;28;20037;-61
2022/09/16 00:53:18;;;;;;;4.35;3.75;;;14.80;73.40;;;;;;5078536;28;20037;-59
2022/09/16 00:55:44;;;;;;;7.63;3.47;;;14.80;73.30;;;;;;5082239;28;20061;-59
2022/09/16 00:58:47;;;;;;;7.90;3.70;;;14.80;73.10;;;;;;5094890;28;20052;-59
2022/09/16 01:01:13;;;;;;;9.75;3.30;;;14.80;73.20;;;;;;5084746;28;20029;-59
2022/09/16 01:03:47;;;;;;;7.35;3.72;;;14.80;73.00;;;;;;5084052;28;20025;-59
2022/09/16 01:06:14;;;;;;;;;;;14.80;73.40;;;;;;5086408;28;21986;-59
2022/09/16 01:08:42;;;;;;;6.63;3.63;;;14.80;73.70;;;;;;5078229;28;19913;-59
2022/09/16 01:11:08;;;;;;;5.10;3.28;;;14.80;73.00;;;;;;5080178;28;20540;-59
2022/09/16 01:13:34;;;;;;;5.22;3.60;;;14.70;73.10;;;;;;5080384;28;20025;-60
2022/09/16 01:16:36;;;;;;;6.72;3.35;;;14.70;73.50;;;;;;5070649;28;20036;-59
2022/09/16 01:19:17;;;;;;;5.05;3.63;;;14.70;74.10;;;;;;5094608;28;20032;-59
2022/09/16 01:21:52;;;;;;;5.65;3.03;;;14.70;73.90;;;;;;5105699;28;20039;-58
2022/09/16 01:24:36;;;;;;;6.28;3.90;;;14.70;74.10;;;;;;5071932;28;20032;-59
2022/09/16 01:27:30;;;;;;;8.02;4.20;;;14.80;74.00;;;;;;5065915;28;20507;-59
2022/09/16 01:30:11;;;;;;;6.28;3.70;;;14.70;74.80;;;;;;5087723;28;20061;-59
2022/09/16 01:32:48;;;;;;;5.85;3.90;;;14.80;75.50;;;;;;5085365;28;20033;-60
2022/09/16 01:35:26;;;;;;;5.60;3.92;;;14.90;75.00;;;;;;5092389;28;20066;-62
2022/09/16 01:38:09;;;;;;;6.97;4.15;;;14.90;74.70;;;;;;5079223;28;20024;-59
2022/09/16 01:41:27;;;;;;;7.32;4.05;;;14.90;74.90;;;;;;5087923;28;20486;-60
2022/09/16 01:44:09;;;;;;;3.78;3.38;;;15.00;75.00;;;;;;5057697;28;20064;-59
2022/09/16 01:46:35;;;;;;;6.20;3.50;;;15.00;74.60;;;;;;5065578;28;20137;-61
2022/09/16 01:49:31;;;;;;;5.35;3.60;;;15.10;74.10;;;;;;5103174;28;20051;-60
2022/09/16 01:52:12;;;;;;;4.68;3.78;;;15.10;74.60;;;;;;5037344;28;20042;-59
2022/09/16 01:54:50;;;;;;;5.95;3.80;;;15.10;74.30;;;;;;5035014;28;20066;-60
2022/09/16 01:57:25;;;;;;;5.20;3.83;;;15.10;74.50;;;;;;5033601;28;20053;-60
2022/09/16 01:59:59;;;;;;;4.65;4.03;;;15.20;74.60;;;;;;5046592;28;20048;-60
2022/09/16 02:02:30;;;;;;;6.60;4.05;;;15.20;74.50;;;;;;5029955;28;20058;-60
2022/09/16 02:04:59;;;;;;;6.63;4.10;;;15.20;74.50;;;;;;5051184;28;20033;-60
2022/09/16 02:07:31;;;;;;;4.50;3.67;;;15.20;74.20;;;;;;5041596;28;20052;-59
2022/09/16 02:10:08;;;;;;;8.60;4.45;;;15.30;74.30;;;;;;5054814;28;20099;-59
2022/09/16 02:12:38;;;;;;;6.13;3.75;;;15.30;74.50;;;;;;5033571;28;20040;-60
2022/09/16 02:15:11;;;;;;;7.00;4.25;;;15.30;74.30;;;;;;5050268;28;20059;-60
2022/09/16 02:17:43;;;;;;;7.72;3.88;;;15.30;74.50;;;;;;5039882;28;20025;-60
2022/09/16 02:20:13;;;;;;;6.70;3.97;;;15.30;74.40;;;;;;5036960;28;20033;-62
2022/09/16 02:22:46;;;;;;;6.22;4.10;;;15.40;74.40;;;;;;5047611;28;20456;-60
2022/09/16 02:25:14;;;;;;;5.93;4.22;;;15.30;74.40;;;;;;5050146;28;20040;-60
2022/09/16 02:27:42;;;;;;;4.43;3.45;;;15.40;74.30;;;;;;5025743;28;20118;-60
2022/09/16 02:30:17;;;;;;;6.55;4.30;;;15.40;74.20;;;;;;5096687;28;20044;-59
2022/09/16 02:32:47;;;;;;;8.07;4.28;;;15.50;74.30;;;;;;5065283;28;20028;-60
2022/09/16 02:35:16;;;;;;;7.32;4.25;;;15.50;74.20;;;;;;5095922;28;20032;-59
2022/09/16 02:37:50;;;;;;;6.32;4.38;;;15.50;74.20;;;;;;5081309;28;20024;-59
2022/09/16 02:40:24;;;;;;;7.90;4.22;;;15.50;74.10;;;;;;5077883;28;20028;-60
2022/09/16 02:42:50;;;;;;;5.80;4.37;;;15.50;73.90;;;;;;5075911;28;20030;-61
2022/09/16 02:45:16;;;;;;;7.75;4.00;;;15.60;73.70;;;;;;5086713;28;20757;-60
2022/09/16 02:48:11;;;;;;;6.30;4.05;;;15.50;73.60;;;;;;5096243;28;20137;-59
2022/09/16 02:51:15;;;;;;;14.20;4.47;;;15.60;73.80;;;;;;5077737;28;20404;-60
2022/09/16 02:53:59;;;;;;;8.88;4.63;;;15.60;73.70;;;;;;5072801;28;20124;-60
2022/09/16 02:56:30;;;;;;;6.70;4.03;;;15.60;73.60;;;;;;5074033;28;20050;-59
2022/09/16 02:58:56;;;;;;;6.03;3.97;;;15.50;73.40;;;;;;5076426;28;20075;-61
2022/09/16 03:01:23;;;;;;;8.98;4.50;;;15.50;73.40;;;;;;5079042;28;20132;-60
2022/09/16 03:03:50;;;;;;;7.43;4.68;;;15.50;73.40;;;;;;5076138;28;20024;-60
2022/09/16 03:06:23;;;;;;;7.97;4.68;;;15.50;73.30;;;;;;5085278;28;20025;-60
2022/09/16 03:08:51;;;;;;;5.15;4.32;;;15.50;73.30;;;;;;5070504;28;20032;-61
2022/09/16 03:11:22;;;;;;;10.60;5.07;;;15.50;73.20;;;;;;5079794;28;20081;-60
2022/09/16 03:14:01;;;;;;;8.48;4.53;;;15.50;73.30;;;;;;5072512;28;20025;-60
2022/09/16 03:17:03;;;;;;;5.75;4.50;;;15.50;73.30;;;;;;5068454;28;20092;-59
2022/09/16 03:19:49;;;;;;;7.35;4.22;;;15.50;73.50;;;;;;5065389;28;20033;-59
2022/09/16 03:22:36;;;;;;;6.07;4.50;;;15.50;73.10;;;;;;5068375;28;20032;-60
2022/09/16 03:25:33;;;;;;;5.45;4.50;;;15.40;73.30;;;;;;5071579;28;20036;-60
2022/09/16 03:27:58;;;;;;;6.55;4.75;;;15.40;73.30;;;;;;5073711;28;20028;-61
2022/09/16 03:30:24;;;;;;;7.40;4.45;;;15.40;73.20;;;;;;5083504;28;20227;-60
2022/09/16 03:32:57;;;;;;;6.57;4.50;;;15.40;73.20;;;;;;5089066;28;20029;-59
2022/09/16 03:35:28;;;;;;;8.98;5.65;;;15.30;73.30;;;;;;5087496;28;20028;-60
2022/09/16 03:37:57;;;;;;;8.52;4.68;;;15.30;73.40;;;;;;5081131;28;20024;-60
2022/09/16 03:40:25;;;;;;;9.63;4.53;;;15.30;73.50;;;;;;5090855;28;20032;-60
2022/09/16 03:42:51;;;;;;;7.03;4.40;;;15.30;73.50;;;;;;5095183;28;20017;-59
2022/09/16 03:45:20;;;;;;;8.30;4.55;;;15.20;73.40;;;;;;5091760;28;20020;-60
2022/09/16 03:47:48;;;;;;;7.93;4.50;;;15.20;73.50;;;;;;5084399;28;20048;-60
2022/09/16 03:50:15;;;;;;;10.02;5.05;;;15.20;73.50;;;;;;5085023;28;20033;-59
2022/09/16 03:52:41;;;;;;;6.68;4.72;;;15.20;73.50;;;;;;5084532;28;20056;-59
2022/09/16 03:55:07;;;;;;;9.60;5.07;;;15.20;73.60;;;;;;5074214;28;20031;-59
2022/09/16 03:57:33;;;;;;;7.45;4.40;;;15.10;73.60;;;;;;5071789;28;20153;-60
2022/09/16 03:59:59;;;;;;;7.85;5.30;;;15.10;73.70;;;;;;5069662;28;20037;-60
2022/09/16 04:02:25;;;;;;;9.65;5.00;;;15.10;73.70;;;;;;5066260;28;20020;-60
2022/09/16 04:04:51;;;;;;;7.57;4.10;;;15.10;73.70;;;;;;5099263;28;20032;-60
2022/09/16 04:07:16;;;;;;;6.45;4.45;;;15.00;73.70;;;;;;5081875;28;20028;-60
2022/09/16 04:09:42;;;;;;;8.18;4.47;;;15.00;73.80;;;;;;5085600;28;20506;-59
2022/09/16 04:12:08;;;;;;;7.88;4.70;;;15.00;73.90;;;;;;5085681;28;20033;-59
2022/09/16 04:14:34;;;;;;;7.55;4.60;;;15.00;74.10;;;;;;5101932;28;20579;-59
2022/09/16 04:17:00;;;;;;;5.28;4.68;;;15.00;74.30;;;;;;5084917;28;20363;-59
2022/09/16 04:19:26;;;;;;;6.85;4.88;;;14.90;74.40;;;;;;5073594;28;20029;-60
2022/09/16 04:21:52;;;;;;;8.45;5.00;;;15.00;74.60;;;;;;5075072;28;20031;-59
2022/09/16 04:24:19;;;;;;;10.77;5.78;;;15.00;74.60;;;;;;5102991;28;20028;-59
2022/09/16 04:26:45;;;;;;;8.27;5.40;;;15.00;74.70;;;;;;5092018;28;20021;-58
2022/09/16 04:29:11;;;;;;;8.48;5.63;;;15.00;74.70;;;;;;5088150;28;20430;-59
2022/09/16 04:31:37;;;;;;;5.95;5.00;;;15.00;74.70;;;;;;5080942;28;20087;-60
2022/09/16 04:34:03;;;;;;;7.10;5.18;;;15.00;74.60;;;;;;5106595;28;20032;-60
2022/09/16 04:36:29;;;;;;;7.93;5.15;;;15.00;74.70;;;;;;5087029;28;20055;-59
2022/09/16 04:38:55;;;;;;;7.63;5.63;;;14.90;74.60;;;;;;5085999;28;20037;-60
2022/09/16 04:41:23;;;;;;;11.55;5.28;;;15.00;74.70;;;;;;5099583;28;20040;-61
2022/09/16 04:43:56;;;;;;;7.03;5.40;;;14.90;74.60;;;;;;5067530;28;20133;-61
2022/09/16 04:46:23;;;;;;;7.20;5.65;;;14.90;74.70;;;;;;5088976;28;20038;-61
2022/09/16 04:48:50;;;;;;;9.68;5.50;;;14.90;74.50;;;;;;5075384;28;20049;-61
2022/09/16 04:51:18;;;;;;;8.95;5.38;;;14.90;74.50;;;;;;5071351;28;20041;-60
2022/09/16 04:53:45;;;;;;;10.57;5.93;;;14.90;74.50;;;;;;5070507;28;20021;-60
2022/09/16 04:56:14;;;;;;;8.63;6.10;;;14.90;74.50;;;;;;5084856;28;20479;-62
2022/09/16 04:58:45;;;;;;;10.00;6.13;;;14.90;74.70;;;;;;5093708;28;20539;-60
2022/09/16 05:01:16;;;;;;;10.43;6.22;;;14.90;74.70;;;;;;5088319;28;20028;-60
2022/09/16 05:03:47;;;;;;;10.27;6.32;;;14.80;74.70;;;;;;5076646;28;20020;-60
2022/09/16 05:06:15;;;;;;;10.38;6.68;;;14.80;75.00;;;;;;5080682;28;20029;-60
2022/09/16 05:08:41;;;;;;;9.90;6.75;;;14.80;75.00;;;;;;5071255;28;20445;-59
2022/09/16 05:11:13;;;;;;;8.13;5.93;;;14.80;75.00;;;;;;5070614;28;20403;-60
2022/09/16 05:13:39;;;;;;;13.57;7.32;;;14.90;75.30;;;;;;5067450;28;20372;-60
2022/09/16 05:16:10;;;;;;;10.25;6.72;;;14.90;75.10;;;;;;5091797;28;20059;-59
2022/09/16 05:18:37;;;;;;;10.52;7.53;;;14.90;75.20;;;;;;5081572;28;20054;-59
2022/09/16 05:21:05;;;;;;;10.25;7.15;;;14.90;75.90;;;;;;5084307;28;20052;-59
2022/09/16 05:23:31;;;;;;;15.50;7.72;;;15.00;75.20;;;;;;5075432;28;20081;-60
2022/09/16 05:26:03;;;;;;;9.00;6.80;;;15.00;75.20;;;;;;5076802;28;20068;-59
2022/09/16 05:28:29;;;;;;;11.88;6.90;;;15.00;75.20;;;;;;5084122;28;20025;-60
2022/09/16 05:30:54;;;;;;;10.23;6.93;;;15.10;75.10;;;;;;5092676;28;20044;-59
2022/09/16 05:33:20;;;;;;;11.48;7.22;;;15.10;74.90;;;;;;5087311;28;20040;-59
2022/09/16 05:35:46;;;;;;;12.00;7.07;;;15.10;75.70;;;;;;5090122;28;20020;-59
2022/09/16 05:38:12;;;;;;;11.18;7.38;;;15.10;74.90;;;;;;5091907;28;20059;-59
2022/09/16 05:40:38;;;;;;;17.98;7.43;;;15.20;75.00;;;;;;5085344;28;20020;-59
2022/09/16 05:43:04;;;;;;;11.32;6.95;;;15.10;74.90;;;;;;5088282;28;20029;-60
2022/09/16 05:45:30;;;;;;;9.18;6.78;;;15.10;75.00;;;;;;5078000;28;20031;-60
2022/09/16 05:47:55;;;;;;;9.90;6.78;;;15.20;75.00;;;;;;5087784;28;20068;-60
2022/09/16 05:50:21;;;;;;;13.45;6.72;;;15.20;75.00;;;;;;5093424;28;20040;-60
2022/09/16 05:52:47;;;;;;;10.05;6.63;;;15.20;75.00;;;;;;5032384;28;20025;-59
2022/09/16 05:55:12;;;;;;;10.85;5.88;;;15.30;75.20;;;;;;5100974;28;20394;-60
2022/09/16 05:57:38;;;;;;;10.30;5.93;;;15.30;75.30;;;;;;5088862;28;20036;-59
2022/09/16 06:00:05;;;;;;;8.95;5.60;;;15.30;76.00;;;;;;5082566;28;20083;-60
2022/09/16 06:02:30;;;;;;;8.85;5.75;;;15.40;75.40;;;;;;5090005;28;20056;-61
2022/09/16 06:04:56;;;;;;;10.75;5.50;;;15.40;75.20;;;;;;5077406;28;20028;-60
2022/09/16 06:07:22;;;;;;;8.60;5.43;;;15.40;75.00;;;;;;5085170;28;20055;-59
2022/09/16 06:09:48;;;;;;;8.85;6.28;;;15.50;75.00;;;;;;5085153;28;20032;-59
2022/09/16 06:12:14;;;;;;;12.13;6.60;;;15.50;75.10;;;;;;5100104;28;20024;-61
2022/09/16 06:14:40;;;;;;;9.25;6.10;;;15.50;75.10;;;;;;5083784;28;20032;-60
2022/09/16 06:17:05;;;;;;;6.45;5.20;;;15.50;75.10;;;;;;5086621;28;20032;-60
2022/09/16 06:19:31;;;;;;;11.93;6.70;;;15.60;75.20;;;;;;5068003;28;20033;-59
2022/09/16 06:21:57;;;;;;;13.50;6.80;;;15.60;75.20;;;;;;5087127;28;20033;-60
2022/09/16 06:24:23;;;;;;;10.30;6.45;;;15.70;75.10;;;;;;5080971;28;20025;-60
2022/09/16 06:26:48;;;;;;;11.52;6.13;;;15.70;74.90;;;;;;5074482;28;20273;-61
2022/09/16 06:29:15;;;;;;;11.27;5.78;;;15.80;74.70;;;;;;5081169;28;20384;-60
2022/09/16 06:31:41;;;;;;;11.82;6.38;;;15.80;74.50;;;;;;5095297;28;22109;-59
2022/09/16 06:34:12;;;;;;;10.45;6.15;;;15.80;74.40;;;;;;5087453;28;20056;-61
2022/09/16 06:36:38;;;;;;;9.32;5.88;;;15.90;74.20;;;;;;5083895;28;20040;-60
2022/09/16 06:39:07;;;;;;;9.77;5.78;;;15.90;73.90;;;;;;5078069;28;20029;-61
2022/09/16 06:41:33;;;;;;;10.15;6.45;;;15.90;73.90;;;;;;5076297;28;20084;-59
2022/09/16 06:44:00;;;;;;;13.05;5.78;;;15.90;73.90;;;;;;5081548;28;21767;-61
2022/09/16 06:46:27;;;;;;;8.18;6.13;;;15.90;73.80;;;;;;5084919;28;20072;-60
2022/09/16 06:48:55;;;;;;;9.07;6.38;;;15.90;73.70;;;;;;5076655;28;20058;-60
2022/09/16 06:51:26;;;;;;;9.27;5.47;;;16.00;73.80;;;;;;5022020;28;20067;-61
2022/09/16 06:53:55;;;;;;;7.18;5.15;;;16.00;73.80;;;;;;5076001;28;20036;-59
2022/09/16 06:56:21;;;;;;;9.00;5.55;;;16.00;73.80;;;;;;5090394;28;20056;-60
2022/09/16 06:58:49;;;;;;;9.13;5.80;;;16.10;73.70;;;;;;5087668;28;20031;-59
2022/09/16 07:01:22;;;;;;;12.98;5.25;;;16.10;73.30;;;;;;5092644;28;20051;-58
2022/09/16 07:03:51;;;;;;;5.90;4.20;;;16.20;73.00;;;;;;5073356;28;20074;-62
2022/09/16 07:06:18;;;;;;;6.38;4.30;;;16.20;73.00;;;;;;5100716;28;20044;-60
2022/09/16 07:08:45;;;;;;;8.55;4.80;;;16.20;72.70;;;;;;5083262;28;20058;-61
2022/09/16 07:11:13;;;;;;;10.90;4.93;;;16.30;72.50;;;;;;5084921;28;20086;-59
2022/09/16 07:13:40;;;;;;;15.18;4.72;;;16.30;72.30;;;;;;5103339;28;20545;-59
2022/09/16 07:16:09;;;;;;;9.15;4.00;;;16.30;71.90;;;;;;5082443;28;20052;-60
2022/09/16 07:18:34;;;;;;;7.28;4.03;;;16.30;71.60;;;;;;5092635;28;20028;-61
2022/09/16 07:21:05;;;;;;;7.22;4.35;;;16.30;71.50;;;;;;5080772;28;20059;-60
2022/09/16 07:23:33;;;;;;;8.88;4.07;;;16.30;71.10;;;;;;5079417;28;20025;-61
2022/09/16 07:26:03;;;;;;;6.10;4.13;;;16.20;71.00;;;;;;5102472;28;20032;-61
2022/09/16 07:28:30;;;;;;;11.32;4.32;;;16.20;70.90;;;;;;5082489;28;20139;-60
2022/09/16 07:30:59;;;;;;;5.28;3.97;;;16.20;71.20;;;;;;5094244;28;20040;-59
2022/09/16 07:33:24;;;;;;;6.90;4.18;;;16.10;72.10;;;;;;5075740;28;20053;-61
2022/09/16 07:35:50;;;;;;;8.35;4.97;;;16.10;71.30;;;;;;5092410;28;20039;-59
2022/09/16 07:38:16;;;;;;;8.95;5.53;;;16.10;71.40;;;;;;5091353;28;20142;-58
2022/09/16 07:40:41;;;;;;;6.13;4.75;;;16.10;71.50;;;;;;5091270;28;20043;-58
2022/09/16 07:43:07;;;;;;;7.93;4.47;;;16.10;71.80;;;;;;5070390;28;20057;-60
2022/09/16 07:45:33;;;;;;;5.55;3.30;;;16.10;72.20;;;;;;5091958;28;20029;-60
2022/09/16 07:47:58;;;;;;;6.22;3.10;;;16.10;72.10;;;;;;5077922;28;20048;-59
2022/09/16 07:50:24;;;;;;;6.57;3.33;;;16.20;72.10;;;;;;4992923;28;20580;-59
2022/09/16 07:52:55;;;;;;;8.57;2.83;;;16.20;71.90;;;;;;5084143;28;20025;-60
2022/09/16 07:55:21;;;;;;;4.60;2.80;;;16.20;71.60;;;;;;5084248;28;20021;-59
2022/09/16 07:57:46;;;;;;;6.70;3.05;;;16.10;71.70;;;;;;5079698;28;20432;-59
2022/09/16 08:00:15;;;;;;;17.92;2.90;;;16.10;71.60;;;;;;5079956;28;20035;-59
2022/09/16 08:02:40;;;;;;;4.38;2.90;;;16.10;71.60;;;;;;5078735;28;20084;-59
2022/09/16 08:05:08;;;;;;;4.05;2.55;;;16.10;71.60;;;;;;5084233;28;20050;-60
2022/09/16 08:07:34;;;;;;;6.70;3.20;;;16.10;71.60;;;;;;5086062;28;20016;-59
2022/09/16 08:09:59;;;;;;;4.57;2.33;;;16.10;71.70;;;;;;5101744;28;20047;-59
2022/09/16 08:12:25;;;;;;;2.80;2.25;;;16.10;71.80;;;;;;5084754;28;20056;-59
2022/09/16 08:14:51;;;;;;;3.90;2.22;;;16.10;71.70;;;;;;5085862;28;20098;-59
2022/09/16 08:17:16;;;;;;;2.50;2.10;;;16.10;71.60;;;;;;5087770;28;20036;-60
2022/09/16 08:19:42;;;;;;;3.28;2.10;;;16.10;71.10;;;;;;5087237;28;20027;-60
2022/09/16 08:22:08;;;;;;;4.10;2.00;;;16.00;71.10;;;;;;5080487;28;20025;-60
2022/09/16 08:24:33;;;;;;;3.67;1.80;;;16.00;70.60;;;;;;5093806;28;20016;-59
2022/09/16 08:26:59;;;;;;;3.90;1.88;;;15.90;70.50;;;;;;5086966;28;20032;-61
2022/09/16 08:29:25;;;;;;;7.43;1.88;;;15.90;70.30;;;;;;5087313;28;20029;-59
2022/09/16 08:31:50;;;;;;;5.82;2.00;;;15.80;70.50;;;;;;5081328;28;20044;-60
2022/09/16 08:34:17;;;;;;;6.13;1.90;;;15.80;70.80;;;;;;5084978;28;20096;-59
2022/09/16 08:36:42;;;;;;;3.92;2.00;;;15.70;70.70;;;;;;5085446;28;20020;-59
2022/09/16 08:39:09;;;;;;;4.15;1.73;;;15.70;70.80;;;;;;5084519;28;20105;-59
2022/09/16 08:41:43;;;;;;;3.67;1.70;;;15.70;70.90;;;;;;5079962;28;20487;-59
2022/09/16 08:44:37;;;;;;;5.38;1.92;;;15.70;71.10;;;;;;5081341;28;20040;-61
2022/09/16 08:47:18;;;;;;;3.88;1.60;;;15.60;70.90;;;;;;5081670;28;20032;-58
2022/09/16 08:49:45;;;;;;;4.72;1.88;;;15.60;71.00;;;;;;5088726;28;20093;-60
2022/09/16 08:52:42;;;;;;;2.78;1.60;;;15.50;71.30;;;;;;5076337;28;20043;-58
2022/09/16 08:55:19;;;;;;;1.92;1.50;;;15.50;71.50;;;;;;5076620;28;20045;-60
2022/09/16 08:57:56;;;;;;;2.40;1.67;;;15.40;71.60;;;;;;5073009;28;20017;-60
2022/09/16 09:00:22;;;;;;;2.88;1.50;;;15.40;71.80;;;;;;5078612;28;20027;-58
2022/09/16 09:03:20;;;;;;;2.55;1.60;;;15.50;71.90;;;;;;5087338;28;20079;-59
2022/09/16 09:05:49;;;;;;;2.90;1.73;;;15.50;71.50;;;;;;5067385;28;20056;-59
2022/09/16 09:08:23;;;;;;;5.38;1.67;;;15.40;71.90;;;;;;5091257;28;20029;-59
2022/09/16 09:11:24;;;;;;;4.50;1.50;;;15.50;72.50;;;;;;5097071;28;20037;-60
2022/09/16 09:14:09;;;;;;;5.45;1.60;;;15.60;72.20;;;;;;5047813;28;20093;-60
2022/09/16 09:17:01;;;;;;;;;;;15.60;72.10;;;;;;5040796;28;20052;-59
2022/09/16 09:19:42;;;;;;;3.08;1.58;;;15.60;72.20;;;;;;5037570;28;19915;-60
2022/09/16 09:22:53;;;;;;;5.30;1.45;;;15.70;72.50;;;;;;5033223;28;20044;-60
2022/09/16 09:25:49;;;;;;;1.98;1.55;;;15.70;71.90;;;;;;5030056;28;20037;-60
2022/09/16 09:28:22;;;;;;;2.80;1.80;;;15.80;71.40;;;;;;5031213;28;20037;-61
2022/09/16 09:31:13;;;;;;;4.93;1.52;;;15.80;71.60;;;;;;5026422;28;20038;-60
2022/09/16 09:33:58;;;;;;;2.33;1.30;;;15.80;71.70;;;;;;5017040;28;20077;-59
2022/09/16 09:36:30;;;;;;;1.90;1.05;;;15.90;71.40;;;;;;5033563;28;20036;-58
2022/09/16 09:39:26;;;;;;;2.53;1.30;;;15.90;71.30;;;;;;5030824;28;20029;-61
2022/09/16 09:41:58;;;;;;;1.55;1.15;;;15.90;71.10;;;;;;5044439;28;20074;-59
2022/09/16 09:44:45;;;;;;;2.53;1.15;;;15.90;71.10;;;;;;5033402;28;20034;-58
2022/09/16 09:47:34;;;;;;;5.03;1.40;;;15.90;71.10;;;;;;5032737;28;20048;-59
2022/09/16 09:50:15;;;;;;;1.73;1.20;;;15.90;71.60;;;;;;5042228;28;20104;-61
2022/09/16 09:52:49;;;;;;;1.88;1.50;;;15.90;71.70;;;;;;5054349;28;20038;-58
2022/09/16 09:55:17;;;;;;;2.05;1.40;;;16.00;72.00;;;;;;5053945;28;20045;-58
2022/09/16 09:58:02;;;;;;;1.98;1.58;;;16.00;72.20;;;;;;5041902;28;20091;-60
2022/09/16 10:00:27;;;;;;;2.28;1.38;;;16.10;72.30;;;;;;5078232;28;20049;-59
2022/09/16 10:03:04;;;;;;;3.58;1.20;;;16.10;72.40;;;;;;5075362;28;20081;-58
2022/09/16 10:05:30;;;;;;;1.90;1.20;;;16.20;72.50;;;;;;5085253;28;20028;-59
2022/09/16 10:08:09;;;;;;;3.47;1.45;;;16.30;72.30;;;;;;5082602;28;20083;-60
2022/09/16 10:10:45;;;;;;;2.15;1.25;;;16.30;72.20;;;;;;5065370;28;20044;-60
2022/09/16 10:13:15;;;;;;;1.98;1.38;;;16.40;71.60;;;;;;5065726;28;20455;-61
2022/09/16 10:15:41;;;;;;;2.85;1.45;;;16.40;71.00;;;;;;5070940;28;20156;-59
2022/09/16 10:18:22;;;;;;;2.05;1.20;;;16.40;71.00;;;;;;5086482;28;20060;-59
2022/09/16 10:21:01;;;;;;;2.60;1.30;;;16.40;70.80;;;;;;5071106;28;20027;-59
2022/09/16 10:23:27;;;;;;;2.97;1.70;;;16.40;71.40;;;;;;5084611;28;20082;-60
2022/09/16 10:26:20;;;;;;;1.95;1.17;;;16.50;71.70;;;;;;5089032;28;20029;-61
2022/09/16 10:28:56;;;;;;;1.88;1.13;;;16.50;71.20;;;;;;5063952;28;20037;-59
2022/09/16 10:31:24;;;;;;;2.35;1.23;;;16.60;70.60;;;;;;5070613;28;20047;-59
2022/09/16 10:33:50;;;;;;;2.75;1.10;;;16.60;70.50;;;;;;5091271;28;20037;-59
2022/09/16 10:36:21;;;;;;;2.35;1.40;;;16.60;70.50;;;;;;5113741;28;20020;-60
2022/09/16 10:38:55;;;;;;;1.90;1.20;;;16.60;69.70;;;;;;5067723;28;20037;-59
2022/09/16 10:41:25;;;;;;;2.65;1.38;;;16.60;69.80;;;;;;5074095;28;20055;-60
2022/09/16 10:44:20;;;;;;;2.47;1.23;;;16.50;69.80;;;;;;5084543;28;20034;-60
2022/09/16 10:46:49;;;;;;;;;;;16.50;69.70;;;;;;5067653;28;20397;-60
2022/09/16 10:49:19;;;;;;;2.40;1.27;;;16.60;70.00;;;;;;5074211;28;19924;-60
2022/09/16 10:51:45;;;;;;;2.17;1.45;;;16.60;69.50;;;;;;5083248;28;20107;-60
2022/09/16 10:54:24;;;;;;;4.90;1.40;;;16.60;69.50;;;;;;5077875;28;20045;-58
2022/09/16 10:56:51;;;;;;;2.58;1.42;;;16.60;69.10;;;;;;5084676;28;20025;-59
2022/09/16 10:59:16;;;;;;;2.50;1.48;;;16.60;69.90;;;;;;5078499;28;20048;-59
2022/09/16 11:02:11;;;;;;;3.05;1.35;;;16.60;70.20;;;;;;5093030;28;20160;-59
2022/09/16 11:05:05;;;;;;;2.28;1.20;;;16.70;69.50;;;;;;5064897;28;20037;-60
2022/09/16 11:07:57;;;;;;;5.07;1.70;;;16.70;68.50;;;;;;5081432;28;20058;-60
2022/09/16 11:10:32;;;;;;;4.40;1.60;;;16.70;68.00;;;;;;5064689;28;20037;-60
2022/09/16 11:13:00;;;;;;;1.83;1.20;;;16.70;68.30;;;;;;5085703;28;20059;-61
2022/09/16 11:15:29;;;;;;;2.30;1.35;;;16.70;68.80;;;;;;5100022;28;20106;-61
2022/09/16 11:17:57;;;;;;;2.78;1.50;;;16.70;68.90;;;;;;5086591;28;20036;-60
2022/09/16 11:20:29;;;;;;;3.13;1.45;;;16.70;68.70;;;;;;5099864;28;20024;-61
2022/09/16 11:23:00;;;;;;;1.75;1.35;;;16.70;67.90;;;;;;5086211;28;20097;-60
2022/09/16 11:26:03;;;;;;;5.05;1.88;;;16.70;67.60;;;;;;5089993;28;20025;-60
2022/09/16 11:28:31;;;;;;;4.35;1.73;;;16.70;67.30;;;;;;5045249;28;20037;-60
2022/09/16 11:31:18;;;;;;;1.75;1.13;;;16.60;67.70;;;;;;5083654;28;20075;-59
2022/09/16 11:33:56;;;;;;;3.95;1.70;;;16.60;67.50;;;;;;5081897;28;20032;-61
2022/09/16 11:36:25;;;;;;;2.80;1.52;;;16.60;67.50;;;;;;5071158;28;20032;-60
2022/09/16 11:39:27;;;;;;;7.97;1.48;;;16.60;68.30;;;;;;5095110;28;20041;-60
2022/09/16 11:41:55;;;;;;;3.10;1.30;;;16.60;68.40;;;;;;5102281;28;20032;-60
2022/09/16 11:44:49;;;;;;;2.42;1.40;;;16.70;68.80;;;;;;5078833;28;20059;-60
2022/09/16 11:47:56;;;;;;;2.65;1.50;;;16.70;68.60;;;;;;5071712;28;20057;-60
2022/09/16 11:50:42;;;;;;;3.78;1.40;;;16.80;68.10;;;;;;4954687;28;20041;-61
2022/09/16 11:53:26;;;;;;;2.78;1.33;;;16.80;67.30;;;;;;5055026;28;20790;-59
2022/09/16 11:55:57;;;;;;;2.58;1.50;;;16.80;66.60;;;;;;5047372;28;20041;-60
2022/09/16 11:58:28;;;;;;;3.83;1.55;;;16.80;66.70;;;;;;5063324;28;20033;-59
2022/09/16 12:00:59;;;;;;;4.50;1.80;;;16.80;66.70;;;;;;5071523;28;20584;-59
2022/09/16 12:03:37;;;;;;;6.55;1.95;;;16.70;67.00;;;;;;5055659;28;21006;-61
2022/09/16 12:06:23;;;;;;;4.40;1.90;;;16.70;66.60;;;;;;5045688;28;20061;-60
2022/09/16 12:09:16;;;;;;;2.53;1.38;;;16.80;66.40;;;;;;5040221;28;20026;-59
2022/09/16 12:11:52;;;;;;;3.55;1.70;;;16.80;67.10;;;;;;5045890;28;20037;-59
2022/09/16 12:14:27;;;;;;;3.60;1.70;;;16.90;67.10;;;;;;5039018;28;20048;-59
2022/09/16 12:17:02;;;;;;;7.45;1.70;;;17.00;66.70;;;;;;5050684;28;20021;-59
2022/09/16 12:19:35;;;;;;;3.40;1.75;;;17.10;67.10;;;;;;5067225;28;20359;-61
2022/09/16 12:22:16;;;;;;;1.90;1.30;;;17.20;67.10;;;;;;5042436;28;20108;-59
2022/09/16 12:24:48;;;;;;;6.28;1.90;;;17.30;66.20;;;;;;5066454;28;20013;-61
2022/09/16 12:27:23;;;;;;;4.70;1.98;;;17.40;66.30;;;;;;5041417;28;20062;-60
2022/09/16 12:29:56;;;;;;;6.93;2.05;;;17.50;66.30;;;;;;5053199;28;20080;-60
2022/09/16 12:33:00;;;;;;;4.55;1.58;;;17.50;65.30;;;;;;5043283;28;20120;-59
2022/09/16 12:35:28;;;;;;;8.32;1.90;;;17.60;65.20;;;;;;5058481;28;20688;-60
2022/09/16 12:37:54;;;;;;;5.63;1.80;;;17.50;64.90;;;;;;5049520;28;20040;-60
2022/09/16 12:40:37;;;;;;;6.38;2.10;;;17.50;64.50;;;;;;5066029;28;20081;-60
2022/09/16 12:43:17;;;;;;;3.33;1.85;;;17.40;64.10;;;;;;5041030;28;20041;-61
2022/09/16 12:46:02;;;;;;;9.02;1.60;;;17.30;64.70;;;;;;5025504;28;20044;-60
2022/09/16 12:48:51;;;;;;;3.85;1.70;;;17.30;64.80;;;;;;5072968;28;20051;-61
2022/09/16 12:51:54;;;;;;;4.75;2.00;;;17.30;65.10;;;;;;5083491;28;20075;-60
2022/09/16 12:55:14;;;;;;;2.45;1.23;;;17.30;65.20;;;;;;5105917;28;20113;-60
2022/09/16 12:57:58;;;;;;;8.43;2.00;;;17.40;66.60;;;;;;5062118;28;20037;-60
2022/09/16 13:00:39;;;;;;;3.47;1.48;;;17.60;66.90;;;;;;5027347;28;20111;-60
2022/09/16 13:03:21;;;;;;;3.92;1.95;;;17.90;65.40;;;;;;5024160;28;20034;-61
2022/09/16 13:05:50;;;;;;;5.30;1.40;;;18.10;62.80;;;;;;5032825;28;20154;-60
2022/09/16 13:08:29;;;;;;;3.15;1.40;;;18.20;63.70;;;;;;5055937;28;20040;-59
2022/09/16 13:11:02;;;;;;;3.67;1.65;;;18.30;62.90;;;;;;5034386;28;20050;-61
2022/09/16 13:13:45;;;;;;;7.78;2.42;;;18.30;61.00;;;;;;5026929;28;20444;-60
2022/09/16 13:16:10;;;;;;;7.28;2.25;;;18.30;61.30;;;;;;5024251;28;20068;-60